createdAt,value
2019-03-05T00:00:39.927Z,99937.55
2019-03-05T00:05:33.915Z,99941.51
2019-03-05T00:10:27.756Z,99951.24
2019-03-05T00:15:28.799Z,99952.19
2019-03-05T00:20:22.766Z,99948.69
2019-03-05T00:25:22.739Z,99937.66
2019-03-05T00:30:31.934Z,99950.53
2019-03-05T00:35:32.651Z,99966.97
2019-03-05T00:40:33.259Z,99960.83
2019-03-05T00:45:42.546Z,99969.23
2019-03-05T00:50:40.231Z,99963.11
2019-03-05T00:56:04.768Z,99976.79
2019-03-05T01:01:08.445Z,99964.18
2019-03-05T01:06:22.809Z,99973.31
2019-03-05T01:11:17.574Z,99971.39
2019-03-05T01:16:13.530Z,99974.89
2019-03-05T01:21:07.698Z,99983.06
2019-03-05T01:26:01.854Z,99990.65
2019-03-05T01:31:14.542Z,99982.36
2019-03-05T01:36:10.452Z,99990.64
2019-03-05T01:41:06.223Z,100010.93
2019-03-05T01:46:00.245Z,99998.93
2019-03-05T01:50:54.150Z,99997.47
2019-03-05T01:55:47.983Z,99999.47
2019-03-05T02:00:41.932Z,100008.42
2019-03-05T02:05:35.806Z,100008.52
2019-03-05T02:10:32.442Z,100008.55
2019-03-05T02:15:26.284Z,100015.63
2019-03-05T02:20:22.433Z,100011.66
2019-03-05T02:25:31.594Z,100009.94
2019-03-05T02:30:50.685Z,100009.31
2019-03-05T02:36:06.498Z,100016.56
2019-03-05T02:41:34.511Z,100010.05
2019-03-05T02:46:32.180Z,100016.79
2019-03-05T02:51:29.881Z,100021.68
2019-03-05T02:56:33.520Z,100023.16
2019-03-05T03:01:35.066Z,100015.93
2019-03-05T03:06:29.436Z,100019.18
2019-03-05T03:11:23.268Z,100009.27
2019-03-05T03:16:17.142Z,100012.41
2019-03-05T03:21:12.897Z,100019.25
2019-03-05T03:26:06.764Z,100015.78
2019-03-05T03:31:00.662Z,100014.47
2019-03-05T03:35:54.512Z,100016.37
2019-03-05T03:40:48.369Z,100011.48
2019-03-05T03:45:42.236Z,100032.59
2019-03-05T03:50:36.110Z,100042.31
2019-03-05T03:55:30.060Z,100038.36
2019-03-05T04:00:24.251Z,100058.34
2019-03-05T04:05:18.071Z,100066.98
2019-03-05T04:10:14.220Z,100068.03
2019-03-05T04:15:15.824Z,100043.56
2019-03-05T04:20:12.370Z,100038.42
2019-03-05T04:25:07.913Z,100038.74
2019-03-05T04:30:03.456Z,100029.55
2019-03-05T04:34:57.323Z,100033.89
2019-03-05T04:39:51.272Z,100038.91
2019-03-05T04:44:47.037Z,100048.47
2019-03-05T04:49:45.869Z,100042.55
2019-03-05T04:54:39.826Z,100040.78
2019-03-05T04:59:33.774Z,100038.17
2019-03-05T05:04:27.588Z,100035.73
2019-03-05T05:09:21.432Z,100036.77
2019-03-05T05:14:15.435Z,100039.80
2019-03-05T05:19:09.248Z,100042.45
2019-03-05T05:24:03.199Z,100051.56
2019-03-05T05:28:57.048Z,100042.59
2019-03-05T05:33:51.020Z,100050.38
2019-03-05T05:38:44.854Z,100050.38
2019-03-05T05:43:38.715Z,100048.06
2019-03-05T05:48:32.768Z,100042.88
2019-03-05T05:53:26.655Z,100042.88
2019-03-05T05:58:20.505Z,100055.07
2019-03-05T06:03:14.448Z,100056.75
2019-03-05T06:08:08.298Z,100047.88
2019-03-05T06:13:02.285Z,100043.67
2019-03-05T06:17:56.142Z,100051.22
2019-03-05T06:22:50.099Z,100051.09
2019-03-05T06:27:43.937Z,100072.75
2019-03-05T06:32:37.878Z,100089.08
2019-03-05T06:37:33.049Z,100088.35
2019-03-05T06:42:27.089Z,100082.91
2019-03-05T06:47:20.938Z,100093.55
2019-03-05T06:52:14.850Z,100083.12
2019-03-05T06:57:08.792Z,100088.72
2019-03-05T07:02:02.870Z,100094.66
2019-03-05T07:06:56.735Z,100092.39
2019-03-05T07:12:03.773Z,100116.00
2019-03-05T07:17:13.784Z,100127.97
2019-03-05T07:22:23.794Z,100115.20
2019-03-05T07:27:23.583Z,100116.44
2019-03-05T07:32:17.566Z,100118.73
2019-03-05T07:37:11.714Z,100131.72
2019-03-05T07:42:05.678Z,100134.97
2019-03-05T07:46:59.650Z,100132.69
2019-03-05T07:51:53.530Z,100135.77
2019-03-05T07:56:47.491Z,100146.38
2019-03-05T08:01:41.551Z,100157.94
2019-03-05T08:06:35.534Z,100158.95
2019-03-05T08:11:31.753Z,100158.31
2019-03-05T08:16:26.191Z,100151.71
2019-03-05T08:21:20.168Z,100166.03
2019-03-05T08:26:14.356Z,100182.41
2019-03-05T08:31:08.302Z,100178.26
2019-03-05T08:36:02.674Z,100186.33
2019-03-05T08:40:56.588Z,100200.44
2019-03-05T08:45:50.475Z,100201.01
2019-03-05T08:50:44.853Z,100204.86
2019-03-05T08:55:38.872Z,100211.20
2019-03-05T09:00:32.825Z,100219.16
2019-03-05T09:05:26.930Z,100216.28
2019-03-05T09:10:23.198Z,100216.53
2019-03-05T09:15:18.254Z,100220.20
2019-03-05T09:20:14.650Z,100223.36
2019-03-05T09:25:11.548Z,100229.25
2019-03-05T09:30:14.655Z,100222.09
2019-03-05T09:35:11.481Z,100229.42
2019-03-05T09:40:11.384Z,100225.55
2019-03-05T09:45:08.782Z,100229.12
2019-03-05T09:50:05.766Z,100231.02
2019-03-05T09:54:59.635Z,100233.13
2019-03-05T09:59:53.721Z,100239.04
2019-03-05T10:04:47.710Z,100238.08
2019-03-05T10:09:41.563Z,100245.67
2019-03-05T10:14:35.441Z,100236.46
2019-03-05T10:19:29.310Z,100245.95
2019-03-05T10:24:23.321Z,100247.83
2019-03-05T10:29:17.209Z,100250.05
2019-03-05T10:34:11.269Z,100248.97
2019-03-05T10:39:11.942Z,100251.19
2019-03-05T10:44:05.936Z,100265.98
2019-03-05T10:48:59.905Z,100241.59
2019-03-05T10:53:53.908Z,100252.20
2019-03-05T10:58:47.933Z,100267.36
2019-03-05T11:03:42.132Z,100266.77
2019-03-05T11:08:36.086Z,100262.83
2019-03-05T11:13:30.048Z,100272.62
2019-03-05T11:18:29.531Z,100274.04
2019-03-05T11:23:20.097Z,100262.75
2019-03-05T11:28:13.953Z,100270.20
2019-03-05T11:33:07.931Z,100271.20
2019-03-05T11:38:02.139Z,100280.95
2019-03-05T11:42:56.065Z,100285.16
2019-03-05T11:47:50.477Z,100281.48
2019-03-05T11:52:44.736Z,100294.37
2019-03-05T11:57:38.696Z,100288.05
2019-03-05T12:02:32.557Z,100286.51
2019-03-05T12:07:26.559Z,100300.09
2019-03-05T12:12:20.528Z,100295.91
2019-03-05T12:17:14.480Z,100294.12
2019-03-05T12:22:08.325Z,100304.76
2019-03-05T12:27:02.318Z,100301.87
2019-03-05T12:31:56.272Z,100315.92
2019-03-05T12:36:50.304Z,100334.30
2019-03-05T12:41:44.391Z,100335.28
2019-03-05T12:46:38.293Z,100337.34
2019-03-05T12:51:32.315Z,100333.00
2019-03-05T12:56:26.617Z,100351.03
2019-03-05T13:01:20.617Z,100350.56
2019-03-05T13:06:14.735Z,100344.47
2019-03-05T13:11:09.334Z,100341.59
2019-03-05T13:16:04.618Z,100351.30
2019-03-05T13:20:58.539Z,100332.05
2019-03-05T13:25:52.512Z,100334.69
2019-03-05T13:30:46.386Z,100340.19
2019-03-05T13:35:40.363Z,100342.39
2019-03-05T13:40:38.388Z,100335.70
2019-03-05T13:45:30.480Z,100333.56
2019-03-05T13:50:57.303Z,100336.48
2019-03-05T13:56:28.454Z,100351.05
2019-03-05T14:01:22.469Z,100350.66
2019-03-05T14:06:43.037Z,100360.46
2019-03-05T14:11:36.999Z,100365.56
2019-03-05T14:16:31.122Z,100374.69
2019-03-05T14:21:24.993Z,100370.38
2019-03-05T14:26:18.932Z,100377.58
2019-03-05T14:31:13.034Z,100386.02
2019-03-05T14:36:07.025Z,100382.55
2019-03-05T14:41:01.187Z,100378.83
2019-03-05T14:45:55.182Z,100395.78
2019-03-05T14:50:49.065Z,100396.84
2019-03-05T14:55:43.079Z,100406.48
2019-03-05T15:00:37.403Z,100400.41
2019-03-05T15:05:31.485Z,100396.11
2019-03-05T15:10:25.326Z,100391.16
2019-03-05T15:15:29.995Z,100403.46
2019-03-05T15:20:23.936Z,100399.99
2019-03-05T15:25:17.921Z,100388.94
2019-03-05T15:30:17.904Z,100384.38
2019-03-05T15:35:12.335Z,100386.60
2019-03-05T15:40:09.172Z,100390.84
2019-03-05T15:45:06.121Z,100401.83
2019-03-05T15:49:59.923Z,100395.09
2019-03-05T15:54:53.883Z,100392.87
2019-03-05T15:59:47.770Z,100403.56
2019-03-05T16:04:43.736Z,100399.70
2019-03-05T16:09:39.136Z,100398.49
2019-03-05T16:14:33.885Z,100405.03
2019-03-05T16:19:27.939Z,100412.80
2019-03-05T16:24:21.789Z,100424.14
2019-03-05T16:29:16.248Z,100427.13
2019-03-05T16:34:22.909Z,100434.84
2019-03-05T16:39:21.444Z,100435.92
2019-03-05T16:44:29.294Z,100440.33
2019-03-05T16:49:41.886Z,100452.42
2019-03-05T16:54:54.460Z,100451.88
2019-03-05T16:59:53.370Z,100452.64
2019-03-05T17:04:49.294Z,100467.08
2019-03-05T17:09:45.393Z,100476.37
2019-03-05T17:14:39.403Z,100487.75
2019-03-05T17:19:33.382Z,100496.11
2019-03-05T17:24:27.731Z,100501.81
2019-03-05T17:29:21.615Z,100501.47
2019-03-05T17:34:15.692Z,100516.06
2019-03-05T17:39:12.030Z,100515.80
2019-03-05T17:44:05.906Z,100513.27
2019-03-05T17:48:59.775Z,100520.47
2019-03-05T17:53:53.685Z,100533.34
2019-03-05T17:58:47.737Z,100548.55
2019-03-05T18:03:41.615Z,100548.78
2019-03-05T18:08:35.497Z,100564.27
2019-03-05T18:13:29.466Z,100558.72
2019-03-05T18:18:23.297Z,100562.58
2019-03-05T18:23:17.258Z,100565.64
2019-03-05T18:28:11.170Z,100581.95
2019-03-05T18:33:05.542Z,100585.73
2019-03-05T18:37:59.506Z,100596.38
2019-03-05T18:42:53.471Z,100595.61
2019-03-05T18:47:47.755Z,100607.67
2019-03-05T18:52:41.796Z,100610.69
2019-03-05T18:57:35.778Z,100610.35
2019-03-05T19:02:29.749Z,100608.03
2019-03-05T19:07:23.648Z,100600.68
2019-03-05T19:12:17.638Z,100605.83
2019-03-05T19:17:11.653Z,100613.01
2019-03-05T19:22:05.660Z,100624.05
2019-03-05T19:26:59.537Z,100622.91
2019-03-05T19:31:53.444Z,100630.66
2019-03-05T19:36:47.334Z,100632.50
2019-03-05T19:41:41.503Z,100635.40
2019-03-05T19:46:35.414Z,100640.53
2019-03-05T19:51:29.636Z,100637.81
2019-03-05T19:56:23.623Z,100646.06
2019-03-05T20:01:19.503Z,100638.92
2019-03-05T20:06:13.512Z,100638.69
2019-03-05T20:11:07.942Z,100640.16
2019-03-05T20:16:02.647Z,100647.80
2019-03-05T20:20:56.534Z,100647.91
2019-03-05T20:25:51.002Z,100642.57
2019-03-05T20:30:45.286Z,100642.98
2019-03-05T20:35:39.294Z,100645.84
2019-03-05T20:40:33.402Z,100645.09
2019-03-05T20:45:30.503Z,100648.00
2019-03-05T20:50:24.648Z,100650.36
2019-03-05T20:55:22.897Z,100650.72
2019-03-05T21:00:22.592Z,100650.20
2019-03-05T21:05:16.610Z,100647.74
2019-03-05T21:10:10.735Z,100645.98
2019-03-05T21:15:08.440Z,100643.62
2019-03-05T21:20:06.293Z,100638.66
2019-03-05T21:25:00.288Z,100640.35
2019-03-05T21:29:54.254Z,100647.78
2019-03-05T21:34:48.236Z,100639.23
2019-03-05T21:39:42.277Z,100650.25
2019-03-05T21:44:36.162Z,100646.11
2019-03-05T21:49:30.092Z,100646.66
2019-03-05T21:54:23.986Z,100643.59
2019-03-05T21:59:17.864Z,100644.23
2019-03-05T22:04:11.806Z,100652.41
2019-03-05T22:09:05.814Z,100652.13
2019-03-05T22:13:59.767Z,100646.66
2019-03-05T22:18:53.623Z,100645.26
2019-03-05T22:23:47.518Z,100649.58
2019-03-05T22:28:41.388Z,100643.06
2019-03-05T22:33:35.350Z,100646.25
2019-03-05T22:38:29.274Z,100640.41
2019-03-05T22:43:23.315Z,100640.22
2019-03-05T22:48:17.306Z,100635.22
2019-03-05T22:53:11.223Z,100628.22
2019-03-05T22:58:05.493Z,100623.77
2019-03-05T23:02:59.859Z,100632.86
2019-03-05T23:07:53.722Z,100637.36
2019-03-05T23:12:48.110Z,100633.86
2019-03-05T23:17:42.381Z,100637.39
2019-03-05T23:22:36.379Z,100629.66
2019-03-05T23:27:30.328Z,100623.39
2019-03-05T23:32:24.196Z,100624.41
2019-03-05T23:37:18.132Z,100609.67
2019-03-05T23:42:12.109Z,100603.83
2019-03-05T23:47:06.480Z,100608.20
2019-03-05T23:52:00.405Z,100605.55
2019-03-05T23:56:54.369Z,100601.08
